Weather History for KCKC - January, 2013

Change the Weather History Date:

Tuesday, January 29, 2013

  Actual Average Record
Temperature  
Mean Temperature 24 °F -  
Max Temperature 30 °F 18 °F 39 °F (2001)
Min Temperature 19 °F 2 °F -20 °F (2004)
Degree Days  
Heating Degree Days 40    
Moisture  
Dew Point 23 °F    
Average Humidity 86    
Maximum Humidity 93    
Minimum Humidity 74    
Precipitation  
Precipitation 0.06 in - - ()
Sea Level Pressure  
Sea Level Pressure 29.54 in    
Wind  
Wind Speed 7 mph (NNW)    
Max Wind Speed 20 mph    
Max Gust Speed 29 mph    
Visibility 7 miles    
Events Snow    
Averages and records for this station are not official NWS values.
T = Trace of Precipitation, MM = Missing Value Source: NWS Daily Summary

Daily Weather History Graph

Daily Weather History Graph

Search for Another Location

Airport or City:

Trip Planner

Search our weather history database for the weather conditions in past years. The results will help you decide how hot, cold, wet, or windy it might be!

Date:

Astronomy

Jan. 29, 2013 Rise Set
Actual Time 7:32 AM CST 4:57 PM CST
Civil Twilight 6:58 AM CST 5:31 PM CST
Nautical Twilight 6:21 AM CST 6:08 PM CST
Astronomical Twilight 5:45 AM CST 6:45 PM CST
Moon 8:11 PM CST (1/29) 8:13 AM CST (1/29)
Length of Visible Light 10h 32m
Length of Day
9h 25m
Waning Gibbous, 93% of the Moon is Illuminated
Jan 29
Waning Gibbous
Feb 3
Last Quarter
Feb 10
New
Feb 17
First Quarter
Feb 25
Full

Hourly Weather History & Observations

Time (CST) Temp. Windchill Dew Point Humidity Pressure Visibility Wind Dir Wind Speed Gust Speed Precip Events Conditions
12:13 AM 26.6 °F 22.6 °F 24.8 °F 93% 29.71 in 0.8 mi ESE 3.5 mph - N/A   Overcast
12:34 AM 26.6 °F 22.6 °F 24.8 °F 93% 29.68 in 0.8 mi East 3.5 mph - N/A   Overcast
12:54 AM 26.6 °F 20.0 °F 24.8 °F 93% 29.66 in 2.5 mi East 5.8 mph - N/A   Overcast
1:14 AM 26.6 °F 21.2 °F 24.8 °F 93% 29.65 in 1.2 mi ESE 4.6 mph - N/A   Overcast
1:33 AM 26.6 °F 20.0 °F 24.8 °F 93% 29.64 in 3.0 mi East 5.8 mph - N/A Snow Light Snow
1:54 AM 28.4 °F 22.2 °F 24.8 °F 86% 29.63 in 1.2 mi East 5.8 mph - N/A   Overcast
2:03 AM 28.4 °F 22.2 °F 24.8 °F 86% 29.62 in 0.8 mi East 5.8 mph - N/A   Overcast
2:54 AM 28.4 °F 22.2 °F 24.8 °F 86% 29.60 in 0.2 mi ESE 5.8 mph - N/A   Overcast
3:14 AM 28.4 °F 20.4 °F 24.8 °F 86% 29.58 in 0.8 mi East 8.1 mph - N/A Snow Light Snow
3:34 AM 28.4 °F 23.3 °F 24.8 °F 86% 29.58 in 2.5 mi ESE 4.6 mph - N/A   Overcast
3:59 AM 28.4 °F 21.2 °F 24.8 °F 86% 29.56 in 2.5 mi ESE 6.9 mph - N/A Snow Light Snow
4:13 AM 28.4 °F 19.7 °F 24.8 °F 86% 29.54 in 1.5 mi ESE 9.2 mph - N/A   Overcast
4:33 AM 28.4 °F 22.2 °F 24.8 °F 86% 29.53 in 0.8 mi East 5.8 mph - 0.01 in   Overcast
4:53 AM 28.4 °F 22.2 °F 24.8 °F 86% 29.53 in 0.2 mi ESE 5.8 mph - 0.01 in   Overcast
5:13 AM 28.4 °F 24.6 °F 24.8 °F 86% 29.52 in 0.2 mi ESE 3.5 mph - N/A   Overcast
5:33 AM 28.4 °F 19.1 °F 24.8 °F 86% 29.51 in 0.5 mi ESE 10.4 mph - N/A   Overcast
6:14 AM 28.4 °F 20.4 °F 24.8 °F 86% 29.48 in 0.2 mi ESE 8.1 mph - N/A   Overcast
6:34 AM 28.4 °F 23.3 °F 26.6 °F 93% 29.49 in 0.2 mi SE 4.6 mph - N/A   Overcast
6:54 AM 28.4 °F 24.6 °F 26.6 °F 93% 29.47 in 0.2 mi East 3.5 mph - N/A   Overcast
7:13 AM 28.4 °F - 26.6 °F 93% 29.46 in 0.5 mi Calm Calm - N/A   Overcast
7:34 AM 28.4 °F - 26.6 °F 93% 29.47 in 0.5 mi Calm Calm - N/A   Overcast
7:54 AM 28.4 °F - 26.6 °F 93% 29.47 in 0.8 mi Calm Calm - 0.02 in   Overcast
8:14 AM 28.4 °F - 26.6 °F 93% 29.46 in 0.8 mi Calm Calm - N/A Snow Snow
8:34 AM 28.4 °F - 26.6 °F 93% 29.46 in 1.5 mi Calm Calm - 0.01 in   Overcast
8:53 AM 28.4 °F - 26.6 °F 93% 29.46 in 3.0 mi Calm Calm - 0.03 in Snow Light Snow
9:14 AM 28.4 °F 24.6 °F 26.6 °F 93% 29.45 in 10.0 mi NW 3.5 mph - N/A Snow Light Snow
9:33 AM 28.4 °F 24.6 °F 26.6 °F 93% 29.46 in 10.0 mi NW 3.5 mph - N/A   Overcast
9:53 AM 28.4 °F 23.3 °F 26.6 °F 93% 29.46 in 10.0 mi NW 4.6 mph - N/A   Overcast
10:14 AM 28.4 °F 22.2 °F 26.6 °F 93% 29.46 in 10.0 mi NW 5.8 mph - N/A   Overcast
10:34 AM 28.4 °F 24.6 °F 26.6 °F 93% 29.45 in 10.0 mi NW 3.5 mph - N/A   Overcast
10:53 AM 28.4 °F 23.3 °F 26.6 °F 93% 29.46 in 10.0 mi NW 4.6 mph - N/A   Overcast
11:13 AM 28.4 °F 22.2 °F 26.6 °F 93% 29.45 in 10.0 mi WNW 5.8 mph - N/A   Overcast
11:34 AM 28.4 °F 19.7 °F 26.6 °F 93% 29.47 in 10.0 mi WNW 9.2 mph - N/A   Overcast
11:53 AM 28.4 °F 19.7 °F 26.6 °F 93% 29.46 in 10.0 mi NW 9.2 mph - N/A   Overcast
12:13 PM 28.4 °F 20.4 °F 24.8 °F 86% 29.46 in 10.0 mi NW 8.1 mph 16.1 mph N/A   Overcast
12:33 PM 28.4 °F 18.5 °F 24.8 °F 86% 29.48 in 10.0 mi WNW 11.5 mph 18.4 mph N/A   Overcast
12:54 PM 28.4 °F 21.2 °F 24.8 °F 86% 29.49 in 10.0 mi WNW 6.9 mph 17.3 mph N/A   Overcast
1:14 PM 28.4 °F 19.7 °F 24.8 °F 86% 29.50 in 10.0 mi WNW 9.2 mph - N/A   Overcast
1:33 PM 30.2 °F 20.8 °F 24.8 °F 80% 29.49 in 10.0 mi NW 11.5 mph 19.6 mph N/A   Overcast
1:53 PM 28.4 °F 18.0 °F 24.8 °F 86% 29.48 in 10.0 mi WNW 12.7 mph 20.7 mph N/A   Overcast
2:14 PM 28.4 °F 17.5 °F 24.8 °F 86% 29.48 in 10.0 mi NW 13.8 mph 24.2 mph N/A   Overcast
2:33 PM 28.4 °F 18.0 °F 23.0 °F 80% 29.49 in 10.0 mi NW 12.7 mph 23.0 mph N/A   Overcast
2:53 PM 28.4 °F 19.1 °F 24.8 °F 86% 29.51 in 10.0 mi WNW 10.4 mph 17.3 mph N/A   Overcast
3:14 PM 28.4 °F 19.7 °F 23.0 °F 80% 29.52 in 10.0 mi NW 9.2 mph 20.7 mph N/A   Overcast
3:53 PM 28.4 °F 20.4 °F 23.0 °F 80% 29.54 in 10.0 mi WNW 8.1 mph - N/A   Overcast
4:13 PM 28.4 °F 19.7 °F 23.0 °F 80% 29.53 in 10.0 mi WNW 9.2 mph 16.1 mph N/A   Overcast
4:33 PM 28.4 °F 22.2 °F 23.0 °F 80% 29.55 in 10.0 mi WNW 5.8 mph - N/A   Overcast
4:54 PM 26.6 °F 16.8 °F 21.2 °F 80% 29.56 in 10.0 mi WNW 10.4 mph 24.2 mph N/A   Overcast
5:14 PM 26.6 °F 15.7 °F 21.2 °F 80% 29.58 in 10.0 mi WNW 12.7 mph 20.7 mph N/A   Overcast
5:34 PM 24.8 °F 15.3 °F 21.2 °F 86% 29.58 in 10.0 mi WNW 9.2 mph 20.7 mph N/A   Overcast
5:53 PM 24.8 °F 12.4 °F 19.4 °F 80% 29.59 in 10.0 mi NW 15.0 mph 21.9 mph N/A   Overcast
6:13 PM 24.8 °F 14.0 °F 19.4 °F 80% 29.58 in 10.0 mi NW 11.5 mph 20.7 mph N/A   Overcast
6:33 PM 24.8 °F 12.9 °F 17.6 °F 74% 29.56 in 10.0 mi NW 13.8 mph 23.0 mph N/A   Overcast
6:54 PM 24.8 °F 11.1 °F 17.6 °F 74% 29.56 in 10.0 mi NW 18.4 mph 25.3 mph N/A   Overcast
7:14 PM 23.0 °F 8.7 °F 15.8 °F 74% 29.58 in 10.0 mi NNW 18.4 mph 27.6 mph N/A   Mostly Cloudy
7:34 PM 23.0 °F 8.3 °F 15.8 °F 74% 29.59 in 10.0 mi NNW 19.6 mph 27.6 mph N/A   Mostly Cloudy
7:53 PM 23.0 °F 8.7 °F 15.8 °F 74% 29.59 in 10.0 mi NNW 18.4 mph 28.8 mph N/A   Overcast
8:13 PM 21.2 °F 8.3 °F 15.8 °F 80% 29.59 in 10.0 mi NNW 13.8 mph 20.7 mph N/A   Overcast
8:34 PM 21.2 °F 7.8 °F 17.6 °F 86% 29.54 in 10.0 mi NW 15.0 mph 25.3 mph N/A   Overcast
8:53 PM 21.2 °F 6.8 °F 17.6 °F 86% 29.57 in 10.0 mi NNW 17.3 mph 26.5 mph N/A   Overcast
9:14 PM 21.2 °F 8.3 °F 15.8 °F 80% 29.60 in 10.0 mi NW 13.8 mph 28.8 mph N/A   Overcast
9:34 PM 21.2 °F 10.9 °F 17.6 °F 86% 29.61 in 10.0 mi NW 9.2 mph 18.4 mph N/A   Overcast
9:53 PM 21.2 °F 7.8 °F 15.8 °F 80% 29.62 in 10.0 mi NNW 15.0 mph 23.0 mph N/A   Overcast
10:14 PM 21.2 °F 8.3 °F 15.8 °F 80% 29.59 in 10.0 mi NNW 13.8 mph 21.9 mph N/A   Overcast
10:33 PM 21.2 °F 7.8 °F 15.8 °F 80% 29.58 in 10.0 mi NNW 15.0 mph 19.6 mph N/A   Overcast
10:53 PM 19.4 °F 7.9 °F 12.2 °F 74% 29.57 in 10.0 mi NW 10.4 mph 23.0 mph N/A   Overcast
11:14 PM 19.4 °F 8.6 °F 14.0 °F 80% 29.63 in 10.0 mi NW 9.2 mph - N/A   Overcast
11:33 PM 19.4 °F 10.4 °F 14.0 °F 80% 29.63 in 10.0 mi NW 6.9 mph - N/A   Overcast
11:54 PM 19.4 °F 9.5 °F 14.0 °F 80% 29.63 in 10.0 mi NW 8.1 mph - N/A   Overcast